createdAt,value
2023-03-06T00:01:10.062Z,6.00
2023-03-06T00:03:37.333Z,5.90
2023-03-06T00:06:04.780Z,5.68
2023-03-06T00:08:31.985Z,5.47
2023-03-06T00:10:59.817Z,4.65
2023-03-06T00:13:30.214Z,4.85
2023-03-06T00:16:02.969Z,4.90
2023-03-06T00:18:30.213Z,4.28
2023-03-06T00:20:57.497Z,5.30
2023-03-06T00:23:24.829Z,4.53
2023-03-06T00:25:52.432Z,4.65
2023-03-06T00:28:19.704Z,4.63
2023-03-06T00:30:47.606Z,4.85
2023-03-06T00:33:14.763Z,4.57
2023-03-06T00:35:42.680Z,4.55
2023-03-06T00:38:13.060Z,5.25
2023-03-06T00:40:42.763Z,4.90
2023-03-06T00:43:10.354Z,5.68
2023-03-06T00:45:37.877Z,6.72
2023-03-06T00:48:05.905Z,6.05
2023-03-06T00:50:33.318Z,6.20
2023-03-06T00:53:00.438Z,6.70
2023-03-06T00:55:29.457Z,7.55
2023-03-06T00:57:56.762Z,7.20
2023-03-06T01:00:24.565Z,7.38
2023-03-06T01:02:53.755Z,7.80
2023-03-06T01:05:21.195Z,8.13
2023-03-06T01:07:48.350Z,7.38
2023-03-06T01:10:15.561Z,8.07
2023-03-06T01:12:42.747Z,8.68
2023-03-06T01:15:13.296Z,8.15
2023-03-06T01:17:40.536Z,7.45
2023-03-06T01:20:08.633Z,7.25
2023-03-06T01:22:35.797Z,7.70
2023-03-06T01:25:03.737Z,7.85
2023-03-06T01:27:30.898Z,8.13
2023-03-06T01:29:58.150Z,7.75
2023-03-06T01:32:25.558Z,8.25
2023-03-06T01:34:52.800Z,7.97
2023-03-06T01:37:19.982Z,8.25
2023-03-06T01:39:47.280Z,8.20
2023-03-06T01:42:14.730Z,8.70
2023-03-06T01:45:12.868Z,9.15
2023-03-06T01:47:40.224Z,8.30
2023-03-06T01:50:13.180Z,8.60
2023-03-06T01:52:52.587Z,9.18
2023-03-06T01:55:31.116Z,8.15
2023-03-06T01:58:03.605Z,9.38
2023-03-06T02:00:31.497Z,7.75
2023-03-06T02:03:09.463Z,9.07
2023-03-06T02:05:37.899Z,10.23
2023-03-06T02:08:08.091Z,10.07
2023-03-06T02:10:35.536Z,10.45
2023-03-06T02:13:03.480Z,10.60
2023-03-06T02:15:31.274Z,10.32
2023-03-06T02:18:00.705Z,10.38
2023-03-06T02:20:46.238Z,10.20
2023-03-06T02:23:40.588Z,9.77
2023-03-06T02:26:09.508Z,10.88
2023-03-06T02:28:36.796Z,11.15
2023-03-06T02:31:04.392Z,10.95
2023-03-06T02:36:02.497Z,11.90
2023-03-06T02:38:55.610Z,10.15
2023-03-06T02:41:22.688Z,11.07
2023-03-06T02:43:52.903Z,10.88
2023-03-06T02:46:20.073Z,12.13
2023-03-06T02:48:47.581Z,11.15
2023-03-06T02:51:14.839Z,11.82
2023-03-06T02:53:42.215Z,10.23
2023-03-06T02:56:09.461Z,12.05
2023-03-06T02:58:36.676Z,10.30
2023-03-06T03:01:04.592Z,11.23
2023-03-06T03:03:33.308Z,10.93
2023-03-06T03:06:01.356Z,11.38
2023-03-06T03:08:28.770Z,11.75
2023-03-06T03:10:57.221Z,10.95
2023-03-06T03:13:24.856Z,10.38
2023-03-06T03:16:07.340Z,10.68
2023-03-06T03:18:35.605Z,10.60
2023-03-06T03:21:10.571Z,10.52
2023-03-06T03:23:37.774Z,11.38
2023-03-06T03:26:18.796Z,10.98
2023-03-06T03:28:46.063Z,11.13
2023-03-06T03:31:14.183Z,11.73
2023-03-06T03:33:41.873Z,11.93
2023-03-06T03:36:09.918Z,11.27
2023-03-06T03:38:37.127Z,11.18
2023-03-06T03:41:05.410Z,11.27
2023-03-06T03:43:32.649Z,11.07
2023-03-06T03:45:59.740Z,11.38
2023-03-06T03:48:26.979Z,11.50
2023-03-06T03:50:54.093Z,10.43
2023-03-06T03:53:21.159Z,11.65
2023-03-06T03:55:49.527Z,11.07
2023-03-06T03:58:17.046Z,10.82
2023-03-06T04:00:44.224Z,11.43
2023-03-06T04:03:11.354Z,10.98
2023-03-06T04:05:38.455Z,9.13
2023-03-06T04:08:05.904Z,10.85
2023-03-06T04:10:34.456Z,10.85
2023-03-06T04:13:01.619Z,11.93
2023-03-06T04:15:28.780Z,10.93
2023-03-06T04:17:55.891Z,10.73
2023-03-06T04:20:23.045Z,11.75
2023-03-06T04:22:50.248Z,11.82
2023-03-06T04:25:17.447Z,10.20
2023-03-06T04:27:44.553Z,10.15
2023-03-06T04:30:12.771Z,11.05
2023-03-06T04:32:39.923Z,10.02
2023-03-06T04:35:07.393Z,10.45
2023-03-06T04:37:34.587Z,10.70
2023-03-06T04:40:01.763Z,10.55
2023-03-06T04:42:29.443Z,11.00
2023-03-06T04:44:56.566Z,9.80
2023-03-06T04:47:23.702Z,9.50
2023-03-06T04:49:51.191Z,10.15
2023-03-06T04:52:18.295Z,10.07
2023-03-06T04:54:46.182Z,9.27
2023-03-06T04:57:14.342Z,10.15
2023-03-06T04:59:41.706Z,9.35
2023-03-06T05:02:09.292Z,9.32
2023-03-06T05:07:03.587Z,8.02
2023-03-06T05:09:30.702Z,9.35
2023-03-06T05:11:57.786Z,9.25
2023-03-06T05:14:25.043Z,9.18
2023-03-06T05:16:52.157Z,8.73
2023-03-06T05:19:19.265Z,8.52
2023-03-06T05:21:46.440Z,8.27
2023-03-06T05:24:13.580Z,9.15
2023-03-06T05:26:40.713Z,10.27
2023-03-06T05:29:07.860Z,8.27
2023-03-06T05:31:35.026Z,8.25
2023-03-06T05:34:02.245Z,8.05
2023-03-06T05:36:29.386Z,8.20
2023-03-06T05:38:56.459Z,8.80
2023-03-06T05:41:23.610Z,7.30
2023-03-06T05:43:53.122Z,7.55
2023-03-06T05:46:20.536Z,7.18
2023-03-06T05:48:47.977Z,7.88
2023-03-06T05:51:15.415Z,8.60
2023-03-06T05:53:42.476Z,9.30
2023-03-06T05:56:29.396Z,8.85
2023-03-06T05:58:56.498Z,7.72
2023-03-06T06:01:25.488Z,9.07
2023-03-06T06:03:52.783Z,7.97
2023-03-06T06:06:19.881Z,8.90
2023-03-06T06:08:47.113Z,9.40
2023-03-06T06:18:41.370Z,8.10
2023-03-06T06:21:14.538Z,9.95
2023-03-06T06:23:42.429Z,9.40
2023-03-06T06:26:13.604Z,10.27
2023-03-06T06:28:40.796Z,9.85
2023-03-06T06:31:13.452Z,10.57
2023-03-06T06:33:42.006Z,10.80
2023-03-06T06:36:20.944Z,10.55
2023-03-06T06:38:49.239Z,11.18
2023-03-06T06:41:42.273Z,8.98
2023-03-06T06:44:10.121Z,11.30
2023-03-06T06:47:20.639Z,14.07
2023-03-06T06:49:25.137Z,8.52
2023-03-06T06:51:52.221Z,11.50
2023-03-06T06:54:20.268Z,10.05
2023-03-06T06:56:47.636Z,8.60
2023-03-06T06:59:17.245Z,15.48
2023-03-06T07:01:45.612Z,17.48
2023-03-06T07:04:17.283Z,16.77
2023-03-06T07:06:47.211Z,15.45
2023-03-06T07:09:24.314Z,13.45
2023-03-06T07:11:58.469Z,8.38
2023-03-06T07:14:31.562Z,9.77
2023-03-06T07:17:01.746Z,10.27
2023-03-06T07:19:29.821Z,7.00
2023-03-06T07:22:01.918Z,6.85
2023-03-06T07:24:31.119Z,7.05
2023-03-06T07:27:01.502Z,4.95
2023-03-06T07:29:31.065Z,3.78
2023-03-06T07:32:02.273Z,4.50
2023-03-06T07:34:36.352Z,5.35
2023-03-06T07:37:07.614Z,3.13
2023-03-06T07:39:44.329Z,3.42
2023-03-06T07:42:15.890Z,3.75
2023-03-06T07:44:49.124Z,4.57
2023-03-06T07:47:17.831Z,3.58
2023-03-06T07:49:45.306Z,3.83
2023-03-06T07:52:15.473Z,2.85
2023-03-06T07:54:46.370Z,4.40
2023-03-06T07:57:14.255Z,2.97
2023-03-06T07:59:43.698Z,2.85
2023-03-06T08:02:12.888Z,2.65
2023-03-06T08:04:40.165Z,3.60
2023-03-06T08:07:07.391Z,2.47
2023-03-06T08:09:36.019Z,4.28
2023-03-06T08:12:03.224Z,4.03
2023-03-06T08:14:30.343Z,3.25
2023-03-06T08:16:57.609Z,3.58
2023-03-06T08:19:27.119Z,2.70
2023-03-06T08:21:58.723Z,2.80
2023-03-06T08:24:25.861Z,2.85
2023-03-06T08:26:52.953Z,2.38
2023-03-06T08:29:20.169Z,1.95
2023-03-06T08:31:57.561Z,3.05
2023-03-06T08:34:30.928Z,3.67
2023-03-06T08:37:04.501Z,6.15
2023-03-06T08:39:39.597Z,7.28
2023-03-06T08:42:09.493Z,7.18
2023-03-06T08:44:38.434Z,4.20
2023-03-06T08:47:06.453Z,7.10
2023-03-06T08:49:36.614Z,3.13
2023-03-06T08:52:09.758Z,2.80
2023-03-06T08:57:25.755Z,1.95
2023-03-06T08:59:56.426Z,3.15
2023-03-06T09:02:27.465Z,2.22
2023-03-06T09:04:54.877Z,2.88
2023-03-06T09:07:22.311Z,3.92
2023-03-06T09:09:56.053Z,2.10
2023-03-06T09:12:25.666Z,2.58
2023-03-06T09:14:53.852Z,3.50
2023-03-06T09:17:21.208Z,2.65
2023-03-06T09:19:48.391Z,4.38
2023-03-06T09:22:15.539Z,3.25
2023-03-06T09:24:42.765Z,2.80
2023-03-06T09:27:17.350Z,1.85
2023-03-06T09:29:54.063Z,1.85
2023-03-06T09:32:24.712Z,1.65
2023-03-06T09:34:53.728Z,1.95
2023-03-06T09:37:21.163Z,1.65
2023-03-06T09:39:48.476Z,1.98
2023-03-06T09:42:23.719Z,2.45
2023-03-06T09:44:59.158Z,1.30
2023-03-06T09:47:41.185Z,1.88
2023-03-06T09:56:31.732Z,8.18
2023-03-06T09:59:17.837Z,12.75
2023-03-06T10:02:15.460Z,8.70
2023-03-06T10:04:50.485Z,2.67
2023-03-06T10:07:56.051Z,2.03
2023-03-06T10:11:06.354Z,7.97
2023-03-06T10:13:50.588Z,6.25
2023-03-06T10:16:33.413Z,3.65
2023-03-06T10:19:14.078Z,4.32
2023-03-06T10:23:14.828Z,3.08
2023-03-06T10:26:00.949Z,1.98
2023-03-06T10:29:06.129Z,2.88
2023-03-06T10:37:24.075Z,1.58
2023-03-06T10:58:24.927Z,1.40
2023-03-06T11:01:22.456Z,0.93
2023-03-06T11:03:52.267Z,1.38
2023-03-06T11:45:40.669Z,0.85
2023-03-06T11:48:16.215Z,1.10
2023-03-06T11:50:50.816Z,1.00
2023-03-06T11:53:34.347Z,1.52
2023-03-06T11:59:25.613Z,1.27
2023-03-06T12:02:28.900Z,1.00
2023-03-06T12:05:41.128Z,1.45
2023-03-06T12:08:36.135Z,1.38
2023-03-06T12:17:54.082Z,1.88
2023-03-06T12:20:58.792Z,1.15
2023-03-06T12:24:08.674Z,1.10
2023-03-06T12:27:45.996Z,1.10
2023-03-06T12:30:21.879Z,0.57
2023-03-06T12:39:01.361Z,0.90
2023-03-06T13:03:30.351Z,1.08
2023-03-06T13:07:00.653Z,1.05
2023-03-06T13:09:42.150Z,1.30
2023-03-06T13:12:22.751Z,1.23
